sensor_id;sensor_type;location;lat;lon;timestamp;P1;durP1;ratioP1;P2;durP2;ratioP2
42084;SDS011;27746;52.228;20.890;2023-02-01T00:00:20;14.13;;;7.90;;
42084;SDS011;27746;52.228;20.890;2023-02-01T00:02:48;12.85;;;7.93;;
42084;SDS011;27746;52.228;20.890;2023-02-01T00:05:15;14.00;;;7.70;;
42084;SDS011;27746;52.228;20.890;2023-02-01T00:07:42;11.95;;;7.47;;
42084;SDS011;27746;52.228;20.890;2023-02-01T00:10:11;14.55;;;7.95;;
42084;SDS011;27746;52.228;20.890;2023-02-01T00:12:38;11.65;;;6.78;;
42084;SDS011;27746;52.228;20.890;2023-02-01T00:15:05;11.52;;;6.95;;
42084;SDS011;27746;52.228;20.890;2023-02-01T00:17:33;11.80;;;7.07;;
42084;SDS011;27746;52.228;20.890;2023-02-01T00:20:00;9.68;;;6.28;;
42084;SDS011;27746;52.228;20.890;2023-02-01T00:22:28;9.13;;;5.85;;
42084;SDS011;27746;52.228;20.890;2023-02-01T00:24:55;10.30;;;5.35;;
42084;SDS011;27746;52.228;20.890;2023-02-01T00:27:23;10.88;;;4.90;;
42084;SDS011;27746;52.228;20.890;2023-02-01T00:29:51;11.20;;;5.03;;
42084;SDS011;27746;52.228;20.890;2023-02-01T00:32:18;8.45;;;4.57;;
42084;SDS011;27746;52.228;20.890;2023-02-01T00:34:45;8.38;;;4.07;;
42084;SDS011;27746;52.228;20.890;2023-02-01T00:37:12;5.68;;;3.47;;
42084;SDS011;27746;52.228;20.890;2023-02-01T00:39:39;6.35;;;3.55;;
42084;SDS011;27746;52.228;20.890;2023-02-01T00:42:06;6.72;;;3.28;;
42084;SDS011;27746;52.228;20.890;2023-02-01T00:44:36;5.85;;;2.53;;
42084;SDS011;27746;52.228;20.890;2023-02-01T00:47:03;4.47;;;2.10;;
42084;SDS011;27746;52.228;20.890;2023-02-01T00:49:30;5.45;;;2.35;;
42084;SDS011;27746;52.228;20.890;2023-02-01T00:51:57;5.68;;;2.42;;
42084;SDS011;27746;52.228;20.890;2023-02-01T00:54:24;7.03;;;2.42;;
42084;SDS011;27746;52.228;20.890;2023-02-01T00:56:52;4.25;;;2.40;;
42084;SDS011;27746;52.228;20.890;2023-02-01T00:59:19;3.92;;;1.83;;
42084;SDS011;27746;52.228;20.890;2023-02-01T01:01:47;6.45;;;2.28;;
42084;SDS011;27746;52.228;20.890;2023-02-01T01:04:14;6.28;;;2.05;;
42084;SDS011;27746;52.228;20.890;2023-02-01T01:06:41;4.35;;;1.90;;
42084;SDS011;27746;52.228;20.890;2023-02-01T01:09:09;4.32;;;1.77;;
42084;SDS011;27746;52.228;20.890;2023-02-01T01:11:36;7.75;;;1.73;;
42084;SDS011;27746;52.228;20.890;2023-02-01T01:14:04;3.28;;;1.45;;
42084;SDS011;27746;52.228;20.890;2023-02-01T01:16:33;7.07;;;2.38;;
42084;SDS011;27746;52.228;20.890;2023-02-01T01:19:02;7.68;;;2.28;;
42084;SDS011;27746;52.228;20.890;2023-02-01T01:21:30;5.40;;;1.90;;
42084;SDS011;27746;52.228;20.890;2023-02-01T01:23:57;4.53;;;1.50;;
42084;SDS011;27746;52.228;20.890;2023-02-01T01:26:25;4.03;;;1.42;;
42084;SDS011;27746;52.228;20.890;2023-02-01T01:28:54;4.45;;;1.98;;
42084;SDS011;27746;52.228;20.890;2023-02-01T01:31:21;7.00;;;1.73;;
42084;SDS011;27746;52.228;20.890;2023-02-01T01:33:49;5.50;;;1.80;;
42084;SDS011;27746;52.228;20.890;2023-02-01T01:36:18;9.05;;;1.85;;
42084;SDS011;27746;52.228;20.890;2023-02-01T01:38:45;3.35;;;1.58;;
42084;SDS011;27746;52.228;20.890;2023-02-01T01:41:13;5.78;;;1.80;;
42084;SDS011;27746;52.228;20.890;2023-02-01T01:43:45;6.47;;;2.03;;
42084;SDS011;27746;52.228;20.890;2023-02-01T01:46:15;6.22;;;1.88;;
42084;SDS011;27746;52.228;20.890;2023-02-01T01:48:42;7.80;;;2.20;;
42084;SDS011;27746;52.228;20.890;2023-02-01T01:51:10;7.40;;;2.17;;
42084;SDS011;27746;52.228;20.890;2023-02-01T01:53:42;12.13;;;2.88;;
42084;SDS011;27746;52.228;20.890;2023-02-01T01:56:10;7.07;;;2.25;;
42084;SDS011;27746;52.228;20.890;2023-02-01T01:58:38;9.77;;;2.55;;
42084;SDS011;27746;52.228;20.890;2023-02-01T02:01:05;7.90;;;2.00;;
42084;SDS011;27746;52.228;20.890;2023-02-01T02:03:34;6.40;;;2.53;;
42084;SDS011;27746;52.228;20.890;2023-02-01T02:06:02;7.32;;;2.35;;
42084;SDS011;27746;52.228;20.890;2023-02-01T02:08:32;7.13;;;2.33;;
42084;SDS011;27746;52.228;20.890;2023-02-01T02:11:01;8.20;;;2.72;;
42084;SDS011;27746;52.228;20.890;2023-02-01T02:13:29;9.27;;;2.47;;
42084;SDS011;27746;52.228;20.890;2023-02-01T02:16:02;10.48;;;2.88;;
42084;SDS011;27746;52.228;20.890;2023-02-01T02:18:32;5.60;;;2.30;;
42084;SDS011;27746;52.228;20.890;2023-02-01T02:21:07;7.55;;;2.88;;
42084;SDS011;27746;52.228;20.890;2023-02-01T02:23:59;8.57;;;2.88;;
42084;SDS011;27746;52.228;20.890;2023-02-01T02:26:35;14.00;;;4.25;;
42084;SDS011;27746;52.228;20.890;2023-02-01T02:31:56;9.25;;;2.60;;
42084;SDS011;27746;52.228;20.890;2023-02-01T02:34:29;8.20;;;3.88;;
42084;SDS011;27746;52.228;20.890;2023-02-01T02:37:01;12.65;;;2.88;;
42084;SDS011;27746;52.228;20.890;2023-02-01T02:39:33;10.57;;;3.83;;
42084;SDS011;27746;52.228;20.890;2023-02-01T02:42:02;7.35;;;2.70;;
42084;SDS011;27746;52.228;20.890;2023-02-01T02:44:49;9.25;;;3.03;;
42084;SDS011;27746;52.228;20.890;2023-02-01T02:47:36;10.43;;;2.97;;
42084;SDS011;27746;52.228;20.890;2023-02-01T02:50:11;10.57;;;3.47;;
42084;SDS011;27746;52.228;20.890;2023-02-01T02:53:02;15.88;;;3.42;;
42084;SDS011;27746;52.228;20.890;2023-02-01T02:55:49;11.70;;;4.25;;
42084;SDS011;27746;52.228;20.890;2023-02-01T02:58:17;13.85;;;4.65;;
42084;SDS011;27746;52.228;20.890;2023-02-01T03:01:02;12.57;;;3.33;;
42084;SDS011;27746;52.228;20.890;2023-02-01T03:03:47;9.02;;;2.58;;
42084;SDS011;27746;52.228;20.890;2023-02-01T03:06:35;13.55;;;4.30;;
42084;SDS011;27746;52.228;20.890;2023-02-01T03:09:04;15.15;;;3.55;;
42084;SDS011;27746;52.228;20.890;2023-02-01T03:11:33;7.93;;;2.55;;
42084;SDS011;27746;52.228;20.890;2023-02-01T03:14:14;16.60;;;3.60;;
42084;SDS011;27746;52.228;20.890;2023-02-01T03:16:44;17.73;;;4.40;;
42084;SDS011;27746;52.228;20.890;2023-02-01T03:19:14;11.32;;;2.63;;
42084;SDS011;27746;52.228;20.890;2023-02-01T03:21:45;13.20;;;3.00;;
42084;SDS011;27746;52.228;20.890;2023-02-01T03:24:16;9.95;;;2.25;;
42084;SDS011;27746;52.228;20.890;2023-02-01T03:26:52;14.02;;;3.47;;
42084;SDS011;27746;52.228;20.890;2023-02-01T03:29:21;13.65;;;5.15;;
42084;SDS011;27746;52.228;20.890;2023-02-01T03:31:50;15.10;;;5.65;;
42084;SDS011;27746;52.228;20.890;2023-02-01T03:34:18;11.18;;;2.40;;
42084;SDS011;27746;52.228;20.890;2023-02-01T03:36:48;14.25;;;4.05;;
42084;SDS011;27746;52.228;20.890;2023-02-01T03:39:16;8.95;;;2.22;;
42084;SDS011;27746;52.228;20.890;2023-02-01T03:41:46;14.30;;;4.03;;
42084;SDS011;27746;52.228;20.890;2023-02-01T03:44:16;20.30;;;3.25;;
42084;SDS011;27746;52.228;20.890;2023-02-01T03:46:45;10.93;;;3.53;;
42084;SDS011;27746;52.228;20.890;2023-02-01T03:49:14;10.32;;;2.80;;
42084;SDS011;27746;52.228;20.890;2023-02-01T03:51:44;15.65;;;3.65;;
42084;SDS011;27746;52.228;20.890;2023-02-01T03:54:13;9.98;;;2.40;;
42084;SDS011;27746;52.228;20.890;2023-02-01T03:56:42;8.95;;;2.60;;
42084;SDS011;27746;52.228;20.890;2023-02-01T03:59:10;8.35;;;3.05;;
42084;SDS011;27746;52.228;20.890;2023-02-01T04:01:38;14.95;;;3.83;;
42084;SDS011;27746;52.228;20.890;2023-02-01T04:04:05;15.68;;;3.35;;
42084;SDS011;27746;52.228;20.890;2023-02-01T04:06:34;16.20;;;4.25;;
42084;SDS011;27746;52.228;20.890;2023-02-01T04:09:01;18.38;;;3.65;;
42084;SDS011;27746;52.228;20.890;2023-02-01T04:11:30;15.05;;;4.10;;
42084;SDS011;27746;52.228;20.890;2023-02-01T04:13:57;11.50;;;3.08;;
42084;SDS011;27746;52.228;20.890;2023-02-01T04:16:29;10.60;;;3.97;;
42084;SDS011;27746;52.228;20.890;2023-02-01T04:18:56;10.05;;;3.08;;
42084;SDS011;27746;52.228;20.890;2023-02-01T04:21:23;11.15;;;3.78;;
42084;SDS011;27746;52.228;20.890;2023-02-01T04:23:51;17.60;;;4.68;;
42084;SDS011;27746;52.228;20.890;2023-02-01T04:26:18;9.50;;;3.03;;
42084;SDS011;27746;52.228;20.890;2023-02-01T04:28:47;16.38;;;3.03;;
42084;SDS011;27746;52.228;20.890;2023-02-01T04:31:14;9.00;;;2.80;;
42084;SDS011;27746;52.228;20.890;2023-02-01T04:33:41;9.38;;;3.05;;
42084;SDS011;27746;52.228;20.890;2023-02-01T04:36:08;11.48;;;5.32;;
42084;SDS011;27746;52.228;20.890;2023-02-01T04:38:36;12.88;;;3.78;;
42084;SDS011;27746;52.228;20.890;2023-02-01T04:41:03;15.00;;;3.30;;
42084;SDS011;27746;52.228;20.890;2023-02-01T04:43:30;12.27;;;2.97;;
42084;SDS011;27746;52.228;20.890;2023-02-01T04:45:59;12.52;;;3.72;;
42084;SDS011;27746;52.228;20.890;2023-02-01T04:48:26;13.15;;;3.40;;
42084;SDS011;27746;52.228;20.890;2023-02-01T04:50:53;12.60;;;3.60;;
42084;SDS011;27746;52.228;20.890;2023-02-01T04:53:20;10.93;;;2.45;;
42084;SDS011;27746;52.228;20.890;2023-02-01T04:55:48;20.45;;;4.35;;
42084;SDS011;27746;52.228;20.890;2023-02-01T04:58:15;17.13;;;3.28;;
42084;SDS011;27746;52.228;20.890;2023-02-01T05:00:43;12.02;;;3.40;;
42084;SDS011;27746;52.228;20.890;2023-02-01T05:03:11;14.65;;;2.67;;
42084;SDS011;27746;52.228;20.890;2023-02-01T05:05:38;10.60;;;3.15;;
42084;SDS011;27746;52.228;20.890;2023-02-01T05:08:06;15.95;;;4.47;;
42084;SDS011;27746;52.228;20.890;2023-02-01T05:10:33;13.05;;;3.25;;
42084;SDS011;27746;52.228;20.890;2023-02-01T05:13:00;11.38;;;2.97;;
42084;SDS011;27746;52.228;20.890;2023-02-01T05:15:45;16.75;;;5.18;;
42084;SDS011;27746;52.228;20.890;2023-02-01T05:18:13;13.65;;;2.83;;
42084;SDS011;27746;52.228;20.890;2023-02-01T05:20:40;14.60;;;4.03;;
42084;SDS011;27746;52.228;20.890;2023-02-01T05:23:08;13.73;;;4.00;;
42084;SDS011;27746;52.228;20.890;2023-02-01T05:25:35;15.35;;;3.13;;
42084;SDS011;27746;52.228;20.890;2023-02-01T05:28:02;15.18;;;3.00;;
42084;SDS011;27746;52.228;20.890;2023-02-01T05:30:29;18.67;;;2.95;;
42084;SDS011;27746;52.228;20.890;2023-02-01T05:32:57;12.88;;;3.00;;
42084;SDS011;27746;52.228;20.890;2023-02-01T05:35:26;17.30;;;3.13;;
42084;SDS011;27746;52.228;20.890;2023-02-01T05:37:53;16.80;;;3.45;;
42084;SDS011;27746;52.228;20.890;2023-02-01T05:40:20;14.18;;;2.85;;
42084;SDS011;27746;52.228;20.890;2023-02-01T05:42:47;13.35;;;3.25;;
42084;SDS011;27746;52.228;20.890;2023-02-01T05:45:15;13.32;;;3.70;;
42084;SDS011;27746;52.228;20.890;2023-02-01T05:47:42;14.48;;;3.28;;
42084;SDS011;27746;52.228;20.890;2023-02-01T05:50:09;15.18;;;3.17;;
42084;SDS011;27746;52.228;20.890;2023-02-01T05:52:37;14.00;;;3.53;;
42084;SDS011;27746;52.228;20.890;2023-02-01T05:55:05;12.95;;;4.18;;
42084;SDS011;27746;52.228;20.890;2023-02-01T05:57:32;23.27;;;3.85;;
42084;SDS011;27746;52.228;20.890;2023-02-01T05:59:59;9.43;;;4.43;;
42084;SDS011;27746;52.228;20.890;2023-02-01T06:02:28;10.52;;;3.78;;
42084;SDS011;27746;52.228;20.890;2023-02-01T06:04:55;11.77;;;3.35;;
42084;SDS011;27746;52.228;20.890;2023-02-01T06:07:22;12.90;;;3.47;;
42084;SDS011;27746;52.228;20.890;2023-02-01T06:09:50;15.70;;;3.13;;
42084;SDS011;27746;52.228;20.890;2023-02-01T06:12:17;12.60;;;3.50;;
42084;SDS011;27746;52.228;20.890;2023-02-01T06:14:45;16.30;;;4.28;;
42084;SDS011;27746;52.228;20.890;2023-02-01T06:17:12;13.05;;;3.05;;
42084;SDS011;27746;52.228;20.890;2023-02-01T06:19:39;12.93;;;3.95;;
42084;SDS011;27746;52.228;20.890;2023-02-01T06:22:06;15.50;;;3.80;;
42084;SDS011;27746;52.228;20.890;2023-02-01T06:24:33;16.15;;;4.65;;
42084;SDS011;27746;52.228;20.890;2023-02-01T06:27:02;12.82;;;3.67;;
42084;SDS011;27746;52.228;20.890;2023-02-01T06:29:29;15.70;;;5.13;;
42084;SDS011;27746;52.228;20.890;2023-02-01T06:31:56;13.32;;;3.65;;
42084;SDS011;27746;52.228;20.890;2023-02-01T06:34:23;12.45;;;2.83;;
42084;SDS011;27746;52.228;20.890;2023-02-01T06:36:50;12.63;;;4.18;;
42084;SDS011;27746;52.228;20.890;2023-02-01T06:39:18;13.13;;;3.03;;
42084;SDS011;27746;52.228;20.890;2023-02-01T06:41:45;10.93;;;3.03;;
42084;SDS011;27746;52.228;20.890;2023-02-01T06:44:16;15.13;;;3.90;;
42084;SDS011;27746;52.228;20.890;2023-02-01T06:46:43;8.52;;;3.05;;
42084;SDS011;27746;52.228;20.890;2023-02-01T06:49:11;14.70;;;3.75;;
42084;SDS011;27746;52.228;20.890;2023-02-01T06:51:38;10.63;;;2.88;;
42084;SDS011;27746;52.228;20.890;2023-02-01T06:54:05;13.55;;;3.67;;
42084;SDS011;27746;52.228;20.890;2023-02-01T06:56:34;11.48;;;3.05;;
42084;SDS011;27746;52.228;20.890;2023-02-01T06:59:03;16.45;;;3.95;;
42084;SDS011;27746;52.228;20.890;2023-02-01T07:01:31;14.15;;;2.97;;
42084;SDS011;27746;52.228;20.890;2023-02-01T07:03:59;11.27;;;3.42;;
42084;SDS011;27746;52.228;20.890;2023-02-01T07:06:26;15.65;;;3.42;;
42084;SDS011;27746;52.228;20.890;2023-02-01T07:08:53;12.70;;;3.88;;
42084;SDS011;27746;52.228;20.890;2023-02-01T07:11:21;19.30;;;3.85;;
42084;SDS011;27746;52.228;20.890;2023-02-01T07:13:48;14.57;;;3.60;;
42084;SDS011;27746;52.228;20.890;2023-02-01T07:16:16;13.02;;;3.25;;
42084;SDS011;27746;52.228;20.890;2023-02-01T07:18:45;14.02;;;3.55;;
42084;SDS011;27746;52.228;20.890;2023-02-01T07:21:13;16.40;;;4.07;;
42084;SDS011;27746;52.228;20.890;2023-02-01T07:23:40;12.38;;;3.53;;
42084;SDS011;27746;52.228;20.890;2023-02-01T07:26:09;12.40;;;2.97;;
42084;SDS011;27746;52.228;20.890;2023-02-01T07:28:37;14.43;;;3.92;;
42084;SDS011;27746;52.228;20.890;2023-02-01T07:31:04;16.48;;;3.55;;
42084;SDS011;27746;52.228;20.890;2023-02-01T07:33:32;18.40;;;4.90;;
42084;SDS011;27746;52.228;20.890;2023-02-01T07:36:01;20.40;;;4.35;;
42084;SDS011;27746;52.228;20.890;2023-02-01T07:38:29;13.88;;;4.28;;
42084;SDS011;27746;52.228;20.890;2023-02-01T07:40:56;17.15;;;3.50;;
42084;SDS011;27746;52.228;20.890;2023-02-01T07:43:24;15.65;;;3.58;;
42084;SDS011;27746;52.228;20.890;2023-02-01T07:45:52;14.65;;;3.78;;
42084;SDS011;27746;52.228;20.890;2023-02-01T07:48:19;21.20;;;4.35;;
42084;SDS011;27746;52.228;20.890;2023-02-01T07:50:46;16.25;;;4.07;;
42084;SDS011;27746;52.228;20.890;2023-02-01T07:53:15;9.10;;;3.63;;
42084;SDS011;27746;52.228;20.890;2023-02-01T07:55:42;15.85;;;4.07;;
42084;SDS011;27746;52.228;20.890;2023-02-01T07:58:09;20.77;;;4.45;;
42084;SDS011;27746;52.228;20.890;2023-02-01T08:00:36;15.60;;;4.28;;
42084;SDS011;27746;52.228;20.890;2023-02-01T08:03:21;14.90;;;3.60;;
42084;SDS011;27746;52.228;20.890;2023-02-01T08:05:53;17.73;;;3.90;;
42084;SDS011;27746;52.228;20.890;2023-02-01T08:08:22;13.35;;;4.63;;
42084;SDS011;27746;52.228;20.890;2023-02-01T08:10:49;13.00;;;4.50;;
42084;SDS011;27746;52.228;20.890;2023-02-01T08:13:16;13.70;;;4.13;;
42084;SDS011;27746;52.228;20.890;2023-02-01T08:15:43;15.82;;;4.45;;
42084;SDS011;27746;52.228;20.890;2023-02-01T08:18:10;10.13;;;3.88;;
42084;SDS011;27746;52.228;20.890;2023-02-01T08:20:41;14.00;;;3.45;;
42084;SDS011;27746;52.228;20.890;2023-02-01T08:23:10;13.02;;;3.88;;
42084;SDS011;27746;52.228;20.890;2023-02-01T08:25:39;23.17;;;5.35;;
42084;SDS011;27746;52.228;20.890;2023-02-01T08:28:06;13.98;;;3.97;;
42084;SDS011;27746;52.228;20.890;2023-02-01T08:30:34;18.73;;;4.15;;
42084;SDS011;27746;52.228;20.890;2023-02-01T08:33:03;9.07;;;3.17;;
42084;SDS011;27746;52.228;20.890;2023-02-01T08:35:31;18.35;;;4.38;;
42084;SDS011;27746;52.228;20.890;2023-02-01T08:37:58;15.18;;;3.63;;
42084;SDS011;27746;52.228;20.890;2023-02-01T08:40:25;16.67;;;3.75;;
42084;SDS011;27746;52.228;20.890;2023-02-01T08:42:54;20.20;;;5.00;;
42084;SDS011;27746;52.228;20.890;2023-02-01T08:45:22;18.13;;;3.83;;
42084;SDS011;27746;52.228;20.890;2023-02-01T08:47:50;16.40;;;3.85;;
42084;SDS011;27746;52.228;20.890;2023-02-01T08:50:17;14.57;;;3.70;;
42084;SDS011;27746;52.228;20.890;2023-02-01T08:52:45;15.60;;;3.67;;
42084;SDS011;27746;52.228;20.890;2023-02-01T08:55:12;19.33;;;3.38;;
42084;SDS011;27746;52.228;20.890;2023-02-01T08:57:39;17.65;;;3.55;;
42084;SDS011;27746;52.228;20.890;2023-02-01T09:00:10;14.75;;;4.60;;
42084;SDS011;27746;52.228;20.890;2023-02-01T09:02:38;13.82;;;4.10;;
42084;SDS011;27746;52.228;20.890;2023-02-01T09:05:05;13.40;;;3.55;;
42084;SDS011;27746;52.228;20.890;2023-02-01T09:07:33;16.17;;;4.57;;
42084;SDS011;27746;52.228;20.890;2023-02-01T09:10:00;16.25;;;3.83;;
42084;SDS011;27746;52.228;20.890;2023-02-01T09:12:28;11.88;;;3.60;;
42084;SDS011;27746;52.228;20.890;2023-02-01T09:14:55;16.67;;;4.47;;
42084;SDS011;27746;52.228;20.890;2023-02-01T09:17:25;14.55;;;3.75;;
42084;SDS011;27746;52.228;20.890;2023-02-01T09:19:53;16.42;;;4.65;;
42084;SDS011;27746;52.228;20.890;2023-02-01T09:22:20;13.25;;;4.20;;
42084;SDS011;27746;52.228;20.890;2023-02-01T09:24:47;11.95;;;3.40;;
42084;SDS011;27746;52.228;20.890;2023-02-01T09:27:14;13.57;;;3.67;;
42084;SDS011;27746;52.228;20.890;2023-02-01T09:29:42;18.80;;;4.03;;
42084;SDS011;27746;52.228;20.890;2023-02-01T09:32:09;16.50;;;3.40;;
42084;SDS011;27746;52.228;20.890;2023-02-01T09:34:37;14.43;;;3.40;;
42084;SDS011;27746;52.228;20.890;2023-02-01T09:37:04;11.60;;;3.75;;
42084;SDS011;27746;52.228;20.890;2023-02-01T09:39:32;19.42;;;4.88;;
42084;SDS011;27746;52.228;20.890;2023-02-01T09:42:05;11.05;;;3.60;;
42084;SDS011;27746;52.228;20.890;2023-02-01T09:44:42;16.63;;;3.63;;
42084;SDS011;27746;52.228;20.890;2023-02-01T09:47:12;15.85;;;3.75;;
42084;SDS011;27746;52.228;20.890;2023-02-01T09:49:43;13.23;;;4.15;;
42084;SDS011;27746;52.228;20.890;2023-02-01T09:52:12;15.60;;;3.83;;
42084;SDS011;27746;52.228;20.890;2023-02-01T09:54:40;9.13;;;3.40;;
42084;SDS011;27746;52.228;20.890;2023-02-01T09:57:11;17.27;;;3.95;;
42084;SDS011;27746;52.228;20.890;2023-02-01T09:59:41;18.13;;;5.55;;
42084;SDS011;27746;52.228;20.890;2023-02-01T10:02:11;11.68;;;3.33;;
42084;SDS011;27746;52.228;20.890;2023-02-01T10:04:39;17.42;;;3.78;;
42084;SDS011;27746;52.228;20.890;2023-02-01T10:07:11;12.35;;;3.58;;
42084;SDS011;27746;52.228;20.890;2023-02-01T10:12:28;10.30;;;3.47;;
42084;SDS011;27746;52.228;20.890;2023-02-01T10:15:03;12.45;;;4.68;;
42084;SDS011;27746;52.228;20.890;2023-02-01T10:17:41;13.52;;;4.72;;
42084;SDS011;27746;52.228;20.890;2023-02-01T10:20:12;19.58;;;4.15;;
42084;SDS011;27746;52.228;20.890;2023-02-01T10:22:44;18.15;;;4.00;;
42084;SDS011;27746;52.228;20.890;2023-02-01T10:25:13;16.45;;;5.22;;
42084;SDS011;27746;52.228;20.890;2023-02-01T10:27:41;21.75;;;3.53;;
42084;SDS011;27746;52.228;20.890;2023-02-01T10:30:14;14.60;;;3.90;;
42084;SDS011;27746;52.228;20.890;2023-02-01T10:32:42;14.75;;;4.35;;
42084;SDS011;27746;52.228;20.890;2023-02-01T10:35:11;13.32;;;4.15;;
42084;SDS011;27746;52.228;20.890;2023-02-01T10:37:40;17.00;;;3.90;;
42084;SDS011;27746;52.228;20.890;2023-02-01T10:40:12;14.98;;;3.60;;
42084;SDS011;27746;52.228;20.890;2023-02-01T10:42:42;13.90;;;4.13;;
42084;SDS011;27746;52.228;20.890;2023-02-01T10:45:11;17.40;;;4.70;;
42084;SDS011;27746;52.228;20.890;2023-02-01T10:47:40;12.75;;;3.83;;
42084;SDS011;27746;52.228;20.890;2023-02-01T10:50:12;14.27;;;4.28;;
42084;SDS011;27746;52.228;20.890;2023-02-01T10:57:57;16.13;;;3.65;;
42084;SDS011;27746;52.228;20.890;2023-02-01T11:00:24;11.63;;;3.95;;
42084;SDS011;27746;52.228;20.890;2023-02-01T11:02:52;17.40;;;4.38;;
42084;SDS011;27746;52.228;20.890;2023-02-01T11:05:19;20.25;;;4.82;;
42084;SDS011;27746;52.228;20.890;2023-02-01T11:07:48;12.40;;;4.53;;
42084;SDS011;27746;52.228;20.890;2023-02-01T11:12:59;17.95;;;5.47;;
42084;SDS011;27746;52.228;20.890;2023-02-01T11:15:28;17.83;;;4.38;;
42084;SDS011;27746;52.228;20.890;2023-02-01T11:17:55;11.60;;;3.75;;
42084;SDS011;27746;52.228;20.890;2023-02-01T11:20:32;16.00;;;4.03;;
42084;SDS011;27746;52.228;20.890;2023-02-01T11:23:01;7.38;;;3.58;;
42084;SDS011;27746;52.228;20.890;2023-02-01T11:25:29;15.45;;;4.13;;
42084;SDS011;27746;52.228;20.890;2023-02-01T11:27:59;13.68;;;4.72;;
42084;SDS011;27746;52.228;20.890;2023-02-01T11:30:29;13.02;;;3.80;;
42084;SDS011;27746;52.228;20.890;2023-02-01T11:32:57;12.45;;;4.90;;
42084;SDS011;27746;52.228;20.890;2023-02-01T11:35:24;13.55;;;4.20;;
42084;SDS011;27746;52.228;20.890;2023-02-01T11:37:57;13.57;;;5.18;;
42084;SDS011;27746;52.228;20.890;2023-02-01T11:40:29;14.57;;;4.82;;
42084;SDS011;27746;52.228;20.890;2023-02-01T11:42:57;16.42;;;4.40;;
42084;SDS011;27746;52.228;20.890;2023-02-01T11:45:26;11.80;;;4.32;;
42084;SDS011;27746;52.228;20.890;2023-02-01T11:47:54;15.85;;;3.80;;
42084;SDS011;27746;52.228;20.890;2023-02-01T11:50:25;13.85;;;5.00;;
42084;SDS011;27746;52.228;20.890;2023-02-01T11:53:01;12.32;;;3.97;;
42084;SDS011;27746;52.228;20.890;2023-02-01T11:55:50;13.45;;;4.43;;
42084;SDS011;27746;52.228;20.890;2023-02-01T11:58:28;13.20;;;5.28;;
42084;SDS011;27746;52.228;20.890;2023-02-01T12:01:13;14.25;;;6.15;;
42084;SDS011;27746;52.228;20.890;2023-02-01T12:04:10;14.45;;;4.82;;
42084;SDS011;27746;52.228;20.890;2023-02-01T12:06:43;16.13;;;4.55;;
42084;SDS011;27746;52.228;20.890;2023-02-01T12:09:15;12.90;;;4.30;;
42084;SDS011;27746;52.228;20.890;2023-02-01T12:11:48;15.38;;;4.45;;
42084;SDS011;27746;52.228;20.890;2023-02-01T12:14:24;17.60;;;4.50;;
42084;SDS011;27746;52.228;20.890;2023-02-01T12:17:01;13.80;;;4.93;;
42084;SDS011;27746;52.228;20.890;2023-02-01T12:19:35;18.00;;;5.40;;
42084;SDS011;27746;52.228;20.890;2023-02-01T12:22:12;9.60;;;4.78;;
42084;SDS011;27746;52.228;20.890;2023-02-01T12:27:37;19.42;;;5.05;;
42084;SDS011;27746;52.228;20.890;2023-02-01T12:30:16;15.02;;;4.30;;
42084;SDS011;27746;52.228;20.890;2023-02-01T12:32:50;17.23;;;5.13;;
42084;SDS011;27746;52.228;20.890;2023-02-01T12:35:26;20.00;;;5.35;;
42084;SDS011;27746;52.228;20.890;2023-02-01T12:38:02;17.27;;;5.30;;
42084;SDS011;27746;52.228;20.890;2023-02-01T12:40:46;18.67;;;5.03;;
42084;SDS011;27746;52.228;20.890;2023-02-01T12:43:20;16.10;;;4.53;;
42084;SDS011;27746;52.228;20.890;2023-02-01T12:45:52;20.08;;;4.78;;
42084;SDS011;27746;52.228;20.890;2023-02-01T12:48:27;20.17;;;7.25;;
42084;SDS011;27746;52.228;20.890;2023-02-01T12:50:56;15.60;;;5.50;;
42084;SDS011;27746;52.228;20.890;2023-02-01T12:53:27;17.33;;;5.05;;
42084;SDS011;27746;52.228;20.890;2023-02-01T12:55:58;20.48;;;5.40;;
42084;SDS011;27746;52.228;20.890;2023-02-01T12:58:29;16.73;;;5.00;;
42084;SDS011;27746;52.228;20.890;2023-02-01T13:00:59;18.98;;;6.25;;
42084;SDS011;27746;52.228;20.890;2023-02-01T13:03:32;21.13;;;6.18;;
42084;SDS011;27746;52.228;20.890;2023-02-01T13:06:02;23.90;;;6.55;;
42084;SDS011;27746;52.228;20.890;2023-02-01T13:08:32;16.73;;;5.32;;
42084;SDS011;27746;52.228;20.890;2023-02-01T13:11:03;20.05;;;5.32;;
42084;SDS011;27746;52.228;20.890;2023-02-01T13:13:32;13.55;;;4.55;;
42084;SDS011;27746;52.228;20.890;2023-02-01T13:16:05;16.95;;;5.60;;
42084;SDS011;27746;52.228;20.890;2023-02-01T13:18:35;18.40;;;4.65;;
42084;SDS011;27746;52.228;20.890;2023-02-01T13:21:05;19.52;;;5.00;;
42084;SDS011;27746;52.228;20.890;2023-02-01T13:23:34;14.90;;;5.70;;
42084;SDS011;27746;52.228;20.890;2023-02-01T13:26:03;15.60;;;5.82;;
42084;SDS011;27746;52.228;20.890;2023-02-01T13:28:32;12.75;;;4.55;;
42084;SDS011;27746;52.228;20.890;2023-02-01T13:31:17;18.55;;;4.75;;
42084;SDS011;27746;52.228;20.890;2023-02-01T13:33:54;15.38;;;5.00;;
42084;SDS011;27746;52.228;20.890;2023-02-01T13:36:30;17.17;;;4.80;;
42084;SDS011;27746;52.228;20.890;2023-02-01T13:41:54;14.15;;;3.95;;
42084;SDS011;27746;52.228;20.890;2023-02-01T13:44:25;13.07;;;4.05;;
42084;SDS011;27746;52.228;20.890;2023-02-01T13:46:54;13.25;;;4.13;;
42084;SDS011;27746;52.228;20.890;2023-02-01T13:49:25;11.55;;;4.07;;
42084;SDS011;27746;52.228;20.890;2023-02-01T13:51:53;12.70;;;4.10;;
42084;SDS011;27746;52.228;20.890;2023-02-01T13:54:25;11.48;;;4.35;;
42084;SDS011;27746;52.228;20.890;2023-02-01T13:56:53;14.90;;;5.70;;
42084;SDS011;27746;52.228;20.890;2023-02-01T13:59:44;12.13;;;4.45;;
42084;SDS011;27746;52.228;20.890;2023-02-01T14:05:10;13.20;;;4.35;;
42084;SDS011;27746;52.228;20.890;2023-02-01T14:07:49;10.73;;;3.60;;
42084;SDS011;27746;52.228;20.890;2023-02-01T14:10:47;12.27;;;5.07;;
42084;SDS011;27746;52.228;20.890;2023-02-01T14:13:22;11.48;;;4.70;;
42084;SDS011;27746;52.228;20.890;2023-02-01T14:21:24;13.70;;;4.50;;
42084;SDS011;27746;52.228;20.890;2023-02-01T14:23:55;12.70;;;4.88;;
42084;SDS011;27746;52.228;20.890;2023-02-01T14:26:23;12.00;;;5.07;;
42084;SDS011;27746;52.228;20.890;2023-02-01T14:28:57;19.13;;;5.63;;
42084;SDS011;27746;52.228;20.890;2023-02-01T14:33:54;15.90;;;4.80;;
42084;SDS011;27746;52.228;20.890;2023-02-01T14:36:23;9.20;;;4.25;;
42084;SDS011;27746;52.228;20.890;2023-02-01T14:38:51;23.23;;;5.95;;
42084;SDS011;27746;52.228;20.890;2023-02-01T14:41:29;12.50;;;4.95;;
42084;SDS011;27746;52.228;20.890;2023-02-01T14:44:14;8.43;;;4.05;;
42084;SDS011;27746;52.228;20.890;2023-02-01T14:47:05;9.60;;;3.72;;
42084;SDS011;27746;52.228;20.890;2023-02-01T14:49:34;9.02;;;3.88;;
42084;SDS011;27746;52.228;20.890;2023-02-01T14:52:05;7.97;;;3.10;;
42084;SDS011;27746;52.228;20.890;2023-02-01T14:54:33;9.57;;;4.15;;
42084;SDS011;27746;52.228;20.890;2023-02-01T14:57:00;11.15;;;3.75;;
42084;SDS011;27746;52.228;20.890;2023-02-01T14:59:27;10.38;;;4.43;;
42084;SDS011;27746;52.228;20.890;2023-02-01T15:01:58;9.63;;;4.15;;
42084;SDS011;27746;52.228;20.890;2023-02-01T15:04:27;7.53;;;3.38;;
42084;SDS011;27746;52.228;20.890;2023-02-01T15:06:55;9.52;;;4.53;;
42084;SDS011;27746;52.228;20.890;2023-02-01T15:09:26;9.75;;;4.22;;